createdAt,value
2023-05-09T00:01:15.277Z,4.53
2023-05-09T00:03:43.770Z,1.17
2023-05-09T00:06:13.545Z,1.27
2023-05-09T00:08:41.682Z,1.13
2023-05-09T00:11:09.680Z,1.07
2023-05-09T00:13:39.031Z,1.00
2023-05-09T00:16:08.311Z,1.23
2023-05-09T00:18:36.800Z,1.10
2023-05-09T00:21:05.166Z,1.57
2023-05-09T00:23:33.214Z,1.30
2023-05-09T00:26:01.620Z,1.23
2023-05-09T00:28:29.620Z,2.10
2023-05-09T00:30:59.079Z,1.00
2023-05-09T00:33:27.734Z,0.93
2023-05-09T00:35:55.863Z,1.33
2023-05-09T00:38:24.664Z,1.13
2023-05-09T00:40:52.783Z,1.23
2023-05-09T00:43:22.349Z,1.53
2023-05-09T00:45:50.977Z,1.00
2023-05-09T00:48:21.615Z,1.50
2023-05-09T00:50:53.123Z,0.90
2023-05-09T00:53:21.603Z,1.63
2023-05-09T00:55:49.811Z,1.17
2023-05-09T00:58:19.429Z,1.17
2023-05-09T01:00:48.072Z,1.07
2023-05-09T01:03:16.423Z,3.00
2023-05-09T01:05:57.087Z,0.80
2023-05-09T01:08:38.610Z,1.17
2023-05-09T01:11:12.818Z,2.43
2023-05-09T01:13:57.265Z,1.33
2023-05-09T01:16:31.710Z,1.77
2023-05-09T01:19:09.430Z,0.93
2023-05-09T01:21:40.225Z,1.57
2023-05-09T01:24:44.741Z,1.27
2023-05-09T01:27:35.636Z,1.70
2023-05-09T01:30:07.422Z,1.50
2023-05-09T01:32:39.191Z,1.60
2023-05-09T01:35:10.774Z,0.97
2023-05-09T01:37:43.088Z,1.30
2023-05-09T01:40:16.761Z,1.37
2023-05-09T01:42:48.778Z,3.23
2023-05-09T01:45:19.697Z,1.33
2023-05-09T01:47:50.182Z,1.40
2023-05-09T01:50:20.477Z,1.30
2023-05-09T01:52:51.304Z,1.07
2023-05-09T01:55:20.882Z,1.53
2023-05-09T01:57:50.128Z,1.30
2023-05-09T02:00:21.258Z,1.87
2023-05-09T02:02:49.777Z,0.90
2023-05-09T02:05:19.388Z,1.43
2023-05-09T02:07:48.758Z,1.33
2023-05-09T02:10:17.402Z,0.77
2023-05-09T02:12:45.437Z,0.80
2023-05-09T02:15:13.581Z,1.70
2023-05-09T02:17:43.395Z,1.93
2023-05-09T02:20:12.223Z,1.83
2023-05-09T02:22:41.666Z,1.77
2023-05-09T02:25:11.230Z,1.40
2023-05-09T02:27:40.758Z,5.17
2023-05-09T02:30:12.814Z,7.10
2023-05-09T02:32:44.506Z,8.57
2023-05-09T02:35:14.487Z,7.53
2023-05-09T02:37:43.611Z,6.53
2023-05-09T02:40:12.754Z,7.17
2023-05-09T02:42:40.810Z,8.63
2023-05-09T02:45:11.212Z,9.13
2023-05-09T02:47:39.805Z,13.87
2023-05-09T02:50:10.072Z,10.73
2023-05-09T02:52:38.074Z,11.87
2023-05-09T02:55:07.459Z,8.57
2023-05-09T02:57:35.431Z,6.93
2023-05-09T03:00:03.471Z,8.80
2023-05-09T03:02:31.557Z,8.47
2023-05-09T03:04:59.513Z,8.63
2023-05-09T03:07:28.836Z,10.20
2023-05-09T03:09:56.974Z,9.03
2023-05-09T03:12:25.310Z,9.47
2023-05-09T03:14:53.210Z,9.70
2023-05-09T03:17:21.603Z,9.77
2023-05-09T03:19:49.955Z,11.97
2023-05-09T03:22:17.975Z,10.73
2023-05-09T03:24:47.254Z,10.07
2023-05-09T03:27:15.332Z,11.27
2023-05-09T03:29:43.338Z,10.07
2023-05-09T03:32:13.883Z,10.97
2023-05-09T03:34:42.948Z,11.10
2023-05-09T03:37:11.070Z,9.90
2023-05-09T03:39:39.452Z,9.57
2023-05-09T03:42:08.761Z,8.70
2023-05-09T03:44:36.736Z,10.03
2023-05-09T03:47:04.972Z,10.33
2023-05-09T03:49:32.964Z,9.87
2023-05-09T03:52:00.890Z,9.57
2023-05-09T03:54:28.903Z,11.20
2023-05-09T03:56:56.887Z,10.93
2023-05-09T03:59:26.379Z,10.57
2023-05-09T04:01:55.036Z,10.73
2023-05-09T04:04:23.303Z,10.13
2023-05-09T04:06:51.292Z,10.63
2023-05-09T04:09:19.500Z,10.27
2023-05-09T04:11:47.769Z,11.90
2023-05-09T04:14:15.908Z,11.73
2023-05-09T04:16:45.378Z,11.37
2023-05-09T04:19:13.348Z,10.73
2023-05-09T04:21:41.364Z,10.30
2023-05-09T04:24:09.578Z,9.13
2023-05-09T04:26:39.123Z,10.07
2023-05-09T04:29:07.214Z,10.27
2023-05-09T04:31:35.430Z,14.40
2023-05-09T04:34:04.895Z,12.70
2023-05-09T04:36:33.994Z,12.43
2023-05-09T04:39:02.516Z,9.10
2023-05-09T04:41:32.543Z,6.30
2023-05-09T04:44:01.085Z,7.47
2023-05-09T04:46:29.171Z,11.13
2023-05-09T04:48:57.129Z,7.80
2023-05-09T04:51:26.648Z,6.87
2023-05-09T04:53:54.743Z,5.80
2023-05-09T04:56:22.739Z,4.93
2023-05-09T04:58:51.484Z,5.47
2023-05-09T05:01:19.694Z,3.80
2023-05-09T05:03:47.724Z,3.83
2023-05-09T05:06:16.736Z,4.70
2023-05-09T05:08:46.111Z,4.27
2023-05-09T05:11:14.132Z,6.23
2023-05-09T05:13:42.178Z,7.43
2023-05-09T05:16:10.221Z,4.00
2023-05-09T05:18:38.152Z,4.43
2023-05-09T05:21:06.289Z,3.50
2023-05-09T05:23:34.317Z,3.33
2023-05-09T05:26:03.879Z,3.93
2023-05-09T05:28:31.827Z,5.03
2023-05-09T05:30:59.831Z,5.57
2023-05-09T05:33:27.846Z,3.60
2023-05-09T05:35:55.914Z,3.37
2023-05-09T05:38:23.851Z,2.73
2023-05-09T05:40:51.871Z,2.80
2023-05-09T05:43:21.286Z,2.10
2023-05-09T05:45:49.230Z,2.20
2023-05-09T05:48:17.244Z,3.53
2023-05-09T05:50:45.192Z,2.77
2023-05-09T05:53:13.145Z,2.73
2023-05-09T05:55:41.248Z,3.07
2023-05-09T05:58:09.232Z,3.23
2023-05-09T06:00:38.680Z,2.77
2023-05-09T06:03:06.659Z,4.30
2023-05-09T06:05:35.000Z,3.40
2023-05-09T06:08:03.010Z,3.07
2023-05-09T06:10:31.024Z,3.30
2023-05-09T06:12:59.126Z,2.43
2023-05-09T06:15:27.265Z,3.23
2023-05-09T06:17:56.819Z,3.80
2023-05-09T06:20:43.254Z,4.47
2023-05-09T06:23:11.205Z,2.27
2023-05-09T06:25:39.164Z,2.50
2023-05-09T06:28:07.346Z,1.93
2023-05-09T06:30:35.292Z,2.10
2023-05-09T06:33:04.731Z,1.60
2023-05-09T06:35:32.765Z,3.20
2023-05-09T06:38:00.849Z,2.67
2023-05-09T06:40:29.288Z,4.17
2023-05-09T06:42:57.227Z,4.67
2023-05-09T06:45:25.246Z,2.80
2023-05-09T06:47:53.521Z,1.93
2023-05-09T06:50:22.832Z,2.27
2023-05-09T06:52:50.770Z,2.77
2023-05-09T06:55:19.022Z,1.70
2023-05-09T06:57:47.023Z,5.73
2023-05-09T07:00:16.544Z,2.10
2023-05-09T07:02:44.667Z,5.37
2023-05-09T07:05:12.870Z,2.17
2023-05-09T07:07:42.356Z,3.03
2023-05-09T07:10:12.691Z,4.50
2023-05-09T07:12:41.808Z,3.03
2023-05-09T07:15:11.489Z,3.53
2023-05-09T07:17:39.662Z,2.50
2023-05-09T07:20:08.745Z,3.53
2023-05-09T07:22:37.779Z,3.40
2023-05-09T07:25:09.550Z,2.10
2023-05-09T07:27:37.839Z,2.57
2023-05-09T07:30:06.377Z,3.40
2023-05-09T07:32:34.626Z,3.10
2023-05-09T07:35:03.171Z,2.27
2023-05-09T07:37:31.602Z,3.43
2023-05-09T07:40:00.506Z,2.77
2023-05-09T07:42:30.434Z,3.63
2023-05-09T07:44:59.196Z,1.80
2023-05-09T07:47:27.222Z,4.43
2023-05-09T07:49:55.491Z,4.27
2023-05-09T07:52:23.677Z,2.20
2023-05-09T07:54:51.728Z,3.13
2023-05-09T07:57:19.837Z,1.80
2023-05-09T07:59:49.425Z,4.07
2023-05-09T08:02:17.384Z,2.03
2023-05-09T08:04:49.069Z,2.17
2023-05-09T08:07:17.666Z,2.37
2023-05-09T08:09:46.687Z,2.60
2023-05-09T08:12:14.664Z,2.03
2023-05-09T08:14:42.776Z,3.33
2023-05-09T08:17:12.142Z,2.43
2023-05-09T08:19:40.153Z,2.97
2023-05-09T08:22:08.110Z,2.67
2023-05-09T08:24:36.341Z,2.90
2023-05-09T08:27:04.833Z,3.70
2023-05-09T08:29:33.023Z,2.43
2023-05-09T08:32:01.121Z,1.80
2023-05-09T08:34:31.435Z,3.03
2023-05-09T08:36:59.433Z,3.53
2023-05-09T08:39:27.431Z,2.30
2023-05-09T08:42:00.101Z,6.67
2023-05-09T08:44:28.895Z,3.40
2023-05-09T08:47:00.655Z,2.07
2023-05-09T08:49:31.138Z,3.00
2023-05-09T08:52:00.173Z,3.27
2023-05-09T08:54:28.841Z,3.40
2023-05-09T08:56:57.855Z,2.63
2023-05-09T08:59:26.622Z,3.53
2023-05-09T09:01:55.878Z,3.03
2023-05-09T09:04:24.066Z,2.77
2023-05-09T09:06:55.112Z,6.10
2023-05-09T09:09:24.550Z,1.80
2023-05-09T09:11:53.395Z,4.32
2023-05-09T09:14:26.699Z,2.30
2023-05-09T09:16:56.940Z,3.03
2023-05-09T09:19:31.252Z,1.85
2023-05-09T09:22:04.593Z,3.42
2023-05-09T09:24:32.701Z,3.08
2023-05-09T09:27:06.649Z,1.60
2023-05-09T09:29:35.055Z,1.75
2023-05-09T09:32:04.516Z,2.25
2023-05-09T09:34:33.008Z,2.45
2023-05-09T09:37:02.444Z,1.80
2023-05-09T09:39:30.977Z,1.80
2023-05-09T09:42:14.040Z,1.80
2023-05-09T09:44:41.967Z,3.08
2023-05-09T09:47:11.657Z,2.10
2023-05-09T09:49:47.748Z,2.17
2023-05-09T09:52:27.127Z,2.30
2023-05-09T09:54:57.326Z,1.85
2023-05-09T09:57:35.362Z,1.90
2023-05-09T10:00:04.186Z,2.17
2023-05-09T10:02:32.531Z,2.20
2023-05-09T10:05:08.625Z,1.70
2023-05-09T10:07:38.535Z,2.30
2023-05-09T10:10:07.661Z,3.30
2023-05-09T10:12:37.714Z,3.00
2023-05-09T10:15:08.312Z,2.23
2023-05-09T10:17:36.828Z,2.17
2023-05-09T10:20:07.411Z,2.23
2023-05-09T10:22:40.482Z,2.33
2023-05-09T10:25:15.917Z,3.50
2023-05-09T10:27:47.744Z,2.30
2023-05-09T10:30:19.952Z,3.57
2023-05-09T10:32:53.559Z,2.03
2023-05-09T10:35:26.178Z,2.80
2023-05-09T10:37:58.233Z,2.37
2023-05-09T10:40:27.278Z,2.10
2023-05-09T10:42:55.432Z,2.25
2023-05-09T10:45:23.991Z,2.50
2023-05-09T10:47:53.896Z,2.13
2023-05-09T10:50:22.597Z,2.57
2023-05-09T10:53:17.075Z,5.63
2023-05-09T10:55:52.954Z,2.43
2023-05-09T10:58:23.249Z,3.80
2023-05-09T11:00:53.498Z,2.80
2023-05-09T11:03:23.666Z,2.70
2023-05-09T11:05:53.456Z,3.73
2023-05-09T11:08:27.560Z,3.47
2023-05-09T11:10:56.383Z,2.70
2023-05-09T11:13:26.023Z,3.70
2023-05-09T11:16:11.319Z,4.47
2023-05-09T11:18:53.332Z,3.10
2023-05-09T11:21:22.220Z,3.50
2023-05-09T11:23:54.995Z,3.70
2023-05-09T11:26:33.020Z,5.57
2023-05-09T11:29:02.836Z,3.87
2023-05-09T11:31:30.755Z,3.53
2023-05-09T11:34:04.958Z,3.73
2023-05-09T11:36:33.903Z,3.60
2023-05-09T11:39:07.237Z,3.50
2023-05-09T11:41:43.029Z,3.30
2023-05-09T11:44:19.049Z,3.70
2023-05-09T11:46:48.088Z,3.33
2023-05-09T11:49:18.066Z,3.40
2023-05-09T11:51:46.222Z,3.43
2023-05-09T11:54:15.664Z,4.40
2023-05-09T11:56:44.004Z,3.90
2023-05-09T11:59:15.100Z,3.83
2023-05-09T12:01:43.191Z,3.23
2023-05-09T12:04:11.271Z,3.77
2023-05-09T12:06:39.328Z,3.40
2023-05-09T12:09:09.283Z,3.50
2023-05-09T12:11:38.833Z,4.63
2023-05-09T12:14:07.134Z,3.63
2023-05-09T12:16:35.231Z,3.67
2023-05-09T12:19:04.125Z,4.00
2023-05-09T12:21:33.655Z,3.90
2023-05-09T12:24:01.815Z,4.37
2023-05-09T12:26:30.048Z,3.80
2023-05-09T12:29:00.481Z,3.60
2023-05-09T12:31:28.764Z,4.33
2023-05-09T12:33:56.997Z,3.73
2023-05-09T12:36:26.411Z,4.10
2023-05-09T12:38:55.405Z,3.93
2023-05-09T12:43:56.389Z,5.47
2023-05-09T12:46:26.163Z,3.40
2023-05-09T12:48:54.291Z,3.07
2023-05-09T12:51:23.238Z,4.20
2023-05-09T12:53:51.476Z,3.00
2023-05-09T12:56:22.961Z,3.67
2023-05-09T12:58:52.417Z,3.57
2023-05-09T13:01:20.859Z,3.50
2023-05-09T13:03:54.765Z,3.10
2023-05-09T13:06:24.286Z,3.50
2023-05-09T13:09:00.319Z,3.67
2023-05-09T13:11:29.002Z,4.30
2023-05-09T13:13:59.704Z,3.80
2023-05-09T13:16:27.814Z,3.87
2023-05-09T13:18:57.258Z,4.03
2023-05-09T13:21:25.197Z,4.37
2023-05-09T13:23:53.102Z,3.83
2023-05-09T13:26:21.266Z,4.23
2023-05-09T13:28:49.657Z,3.80
2023-05-09T13:31:17.871Z,4.80
2023-05-09T13:33:45.959Z,5.23
2023-05-09T13:36:15.433Z,5.30
2023-05-09T13:38:45.547Z,4.63
2023-05-09T13:41:13.948Z,5.07
2023-05-09T13:43:42.677Z,4.40
2023-05-09T13:46:10.940Z,3.70
2023-05-09T13:48:39.863Z,3.67
2023-05-09T13:51:08.749Z,3.50
2023-05-09T13:53:40.147Z,3.30
2023-05-09T13:56:09.782Z,2.90
2023-05-09T13:58:37.933Z,3.90
2023-05-09T14:01:06.373Z,3.43
2023-05-09T14:03:34.370Z,3.33
2023-05-09T14:06:02.954Z,2.80
2023-05-09T14:08:30.965Z,4.53
2023-05-09T14:11:00.295Z,3.17
2023-05-09T14:13:28.778Z,4.00
2023-05-09T14:15:56.877Z,3.23
2023-05-09T14:18:24.844Z,2.93
2023-05-09T14:20:53.380Z,3.57
2023-05-09T14:23:22.516Z,5.70
2023-05-09T14:25:50.731Z,3.87
2023-05-09T14:28:20.106Z,3.07
2023-05-09T14:30:48.040Z,2.87
2023-05-09T14:33:17.682Z,2.93
2023-05-09T14:35:45.750Z,2.40
2023-05-09T14:38:14.742Z,1.40
2023-05-09T14:40:42.847Z,1.83
2023-05-09T14:43:11.369Z,4.07
2023-05-09T14:45:40.732Z,2.77
2023-05-09T14:48:08.750Z,4.87
2023-05-09T14:50:39.523Z,4.70
2023-05-09T14:53:07.735Z,4.33
2023-05-09T14:55:35.864Z,3.40
2023-05-09T14:58:04.052Z,3.63
2023-05-09T15:00:33.171Z,4.37
2023-05-09T15:03:03.428Z,2.87
2023-05-09T15:05:31.539Z,3.00
2023-05-09T15:08:01.180Z,4.60
2023-05-09T15:10:29.436Z,4.23
2023-05-09T15:12:57.470Z,2.70
2023-05-09T15:15:25.772Z,3.03
2023-05-09T15:17:54.931Z,2.40
2023-05-09T15:20:24.393Z,3.90
2023-05-09T15:22:53.622Z,3.57
2023-05-09T15:25:22.238Z,2.37
2023-05-09T15:27:50.533Z,2.40
2023-05-09T15:30:18.698Z,2.43
2023-05-09T15:32:46.973Z,2.63
2023-05-09T15:35:15.955Z,2.73
2023-05-09T15:37:45.495Z,2.50
2023-05-09T15:40:14.791Z,2.50
2023-05-09T15:42:43.408Z,2.27
2023-05-09T15:45:11.625Z,2.43
2023-05-09T15:47:39.682Z,2.57
2023-05-09T15:50:08.871Z,2.03
2023-05-09T15:52:36.818Z,1.93
2023-05-09T15:55:07.373Z,1.97
2023-05-09T15:57:35.476Z,2.10
2023-05-09T16:00:05.696Z,2.10
2023-05-09T16:02:33.797Z,2.60
2023-05-09T16:05:01.797Z,2.03
2023-05-09T16:07:29.811Z,2.50
2023-05-09T16:09:57.775Z,2.50
2023-05-09T16:12:27.276Z,1.87
2023-05-09T16:14:58.995Z,1.83
2023-05-09T16:17:27.045Z,3.63
2023-05-09T16:19:55.671Z,2.30
2023-05-09T16:22:23.723Z,2.20
2023-05-09T16:24:51.688Z,2.70
2023-05-09T16:27:19.735Z,2.43
2023-05-09T16:29:49.347Z,2.70
2023-05-09T16:32:17.329Z,2.87
2023-05-09T16:34:45.276Z,2.70
2023-05-09T16:37:13.270Z,2.70
2023-05-09T16:39:41.270Z,2.37
2023-05-09T16:42:09.442Z,2.70
2023-05-09T16:44:37.609Z,4.40
2023-05-09T16:47:07.082Z,2.80
2023-05-09T16:49:35.187Z,2.10
2023-05-09T16:52:03.170Z,2.40
2023-05-09T16:54:32.305Z,2.17
2023-05-09T16:57:00.272Z,2.07
2023-05-09T16:59:28.440Z,2.67
2023-05-09T17:01:57.724Z,2.70
2023-05-09T17:04:27.553Z,2.77
2023-05-09T17:06:56.211Z,3.77
2023-05-09T17:09:24.625Z,3.40
2023-05-09T17:11:52.599Z,2.37
2023-05-09T17:14:20.699Z,2.30
2023-05-09T17:16:48.722Z,3.30
2023-05-09T17:19:17.399Z,3.17
2023-05-09T17:21:47.243Z,2.90
2023-05-09T17:24:15.871Z,2.67
2023-05-09T17:26:43.907Z,2.80
2023-05-09T17:29:12.345Z,3.53
2023-05-09T17:31:40.337Z,2.20
2023-05-09T17:34:08.290Z,2.80
2023-05-09T17:36:36.545Z,3.07
2023-05-09T17:39:07.662Z,3.60
2023-05-09T17:41:35.632Z,3.73
2023-05-09T17:44:04.436Z,3.87
2023-05-09T17:46:33.211Z,5.03
2023-05-09T17:49:01.232Z,4.40
2023-05-09T17:51:29.826Z,3.37
2023-05-09T17:53:57.883Z,2.60
2023-05-09T17:56:27.318Z,2.60
2023-05-09T17:58:56.177Z,2.90
2023-05-09T18:01:24.422Z,2.93
2023-05-09T18:03:53.276Z,3.80
2023-05-09T18:06:21.723Z,2.67
2023-05-09T18:08:49.697Z,2.80
2023-05-09T18:11:17.728Z,3.00
2023-05-09T18:13:47.710Z,2.90
2023-05-09T18:16:15.744Z,2.97
2023-05-09T18:18:44.916Z,3.30
2023-05-09T18:21:13.013Z,2.93
2023-05-09T18:23:41.440Z,2.63
2023-05-09T18:26:09.460Z,2.10
2023-05-09T18:28:39.521Z,2.30
2023-05-09T18:31:13.675Z,2.80
2023-05-09T18:33:41.692Z,1.97
2023-05-09T18:36:11.096Z,2.23
2023-05-09T18:38:39.912Z,1.70
2023-05-09T18:41:09.205Z,1.90
2023-05-09T18:43:38.937Z,2.20
2023-05-09T18:46:07.879Z,1.93
2023-05-09T18:48:37.355Z,2.50
2023-05-09T18:51:05.544Z,2.30
2023-05-09T18:53:33.577Z,2.70
2023-05-09T18:56:01.918Z,3.60
2023-05-09T18:58:30.854Z,3.30
2023-05-09T19:00:59.034Z,4.30
2023-05-09T19:03:27.317Z,3.73
2023-05-09T19:05:58.085Z,3.70
2023-05-09T19:08:27.400Z,4.13
2023-05-09T19:10:55.594Z,3.27
2023-05-09T19:13:23.923Z,3.53
2023-05-09T19:15:52.141Z,4.97
2023-05-09T19:18:21.035Z,3.77
2023-05-09T19:20:49.105Z,3.67
2023-05-09T19:23:18.515Z,3.60
2023-05-09T19:25:46.934Z,4.30
2023-05-09T19:28:15.131Z,4.00
2023-05-09T19:30:43.740Z,5.10
2023-05-09T19:33:14.487Z,5.87
2023-05-09T19:35:42.773Z,4.57
2023-05-09T19:38:12.044Z,4.90
2023-05-09T19:40:52.092Z,4.17
2023-05-09T19:43:20.166Z,4.70
2023-05-09T19:45:48.168Z,3.47
2023-05-09T19:48:16.231Z,2.57
2023-05-09T19:50:44.566Z,2.87
2023-05-09T19:53:12.872Z,3.00
2023-05-09T19:55:47.068Z,2.97
2023-05-09T19:58:17.430Z,3.00
2023-05-09T20:00:45.996Z,3.20
2023-05-09T20:03:16.131Z,2.80
2023-05-09T20:05:44.265Z,3.30
2023-05-09T20:08:12.171Z,3.47
2023-05-09T20:10:40.074Z,3.73
2023-05-09T20:13:12.035Z,4.63
2023-05-09T20:15:41.224Z,3.70
2023-05-09T20:18:09.190Z,3.30
2023-05-09T20:20:37.349Z,4.00
2023-05-09T20:23:05.228Z,4.60
2023-05-09T20:25:33.106Z,3.53
2023-05-09T20:28:00.951Z,3.53
2023-05-09T20:30:30.187Z,3.80
2023-05-09T20:32:58.654Z,4.10
2023-05-09T20:35:27.112Z,4.50
2023-05-09T20:37:55.384Z,3.83
2023-05-09T20:40:23.416Z,5.73
2023-05-09T20:42:51.297Z,4.90
2023-05-09T20:45:19.167Z,4.63
2023-05-09T20:47:48.406Z,4.70
2023-05-09T20:50:16.609Z,4.60
2023-05-09T20:52:44.572Z,5.70
2023-05-09T20:55:12.932Z,7.00
2023-05-09T20:57:43.449Z,5.83
2023-05-09T21:00:12.483Z,5.20
2023-05-09T21:02:40.623Z,5.93
2023-05-09T21:05:10.621Z,1.87
2023-05-09T21:07:38.503Z,1.23
2023-05-09T21:10:07.310Z,0.90
2023-05-09T21:12:35.176Z,1.30
2023-05-09T21:15:03.255Z,1.73
2023-05-09T21:17:31.702Z,0.93
2023-05-09T21:19:59.578Z,1.20
2023-05-09T21:22:28.760Z,0.90
2023-05-09T21:24:56.634Z,1.57
2023-05-09T21:27:24.512Z,1.03
2023-05-09T21:29:52.333Z,1.13
2023-05-09T21:32:20.287Z,0.70
2023-05-09T21:34:48.994Z,0.93
2023-05-09T21:37:17.126Z,0.90
2023-05-09T21:39:46.386Z,0.77
2023-05-09T21:42:14.255Z,0.87
2023-05-09T21:44:42.580Z,0.87
2023-05-09T21:47:11.629Z,1.00
2023-05-09T21:49:39.678Z,1.30
2023-05-09T21:52:08.345Z,0.77
2023-05-09T21:54:38.222Z,1.40
2023-05-09T21:57:07.569Z,1.17
2023-05-09T21:59:35.425Z,0.90
2023-05-09T22:02:03.383Z,0.73
2023-05-09T22:04:31.316Z,1.27
2023-05-09T22:06:59.307Z,0.87
2023-05-09T22:09:27.377Z,2.50
2023-05-09T22:11:55.274Z,1.10
2023-05-09T22:14:24.648Z,1.80
2023-05-09T22:16:52.512Z,0.90
2023-05-09T22:19:23.026Z,0.83
2023-05-09T22:21:50.914Z,1.07
2023-05-09T22:24:18.781Z,1.13
2023-05-09T22:26:46.664Z,1.10
2023-05-09T22:29:16.525Z,2.40
2023-05-09T22:31:47.148Z,1.40
2023-05-09T22:34:15.081Z,1.10
2023-05-09T22:36:42.984Z,1.33
2023-05-09T22:39:11.217Z,0.83
2023-05-09T22:41:39.249Z,1.43
2023-05-09T22:44:07.318Z,1.57
2023-05-09T22:46:35.482Z,1.00
2023-05-09T22:49:05.030Z,1.00
2023-05-09T22:51:33.572Z,0.97
2023-05-09T22:54:01.632Z,1.00
2023-05-09T22:56:29.569Z,0.87
2023-05-09T22:58:57.676Z,1.10
2023-05-09T23:01:25.764Z,0.90
2023-05-09T23:03:53.701Z,1.90
2023-05-09T23:06:23.048Z,2.23
2023-05-09T23:08:51.006Z,1.90
2023-05-09T23:11:18.914Z,1.63
2023-05-09T23:13:46.960Z,1.87
2023-05-09T23:16:15.097Z,1.77
2023-05-09T23:18:43.374Z,2.20
2023-05-09T23:21:11.316Z,1.60
2023-05-09T23:23:40.685Z,1.67
2023-05-09T23:26:08.640Z,1.70
2023-05-09T23:28:36.846Z,1.57
2023-05-09T23:31:04.866Z,2.37
2023-05-09T23:33:32.850Z,1.73
2023-05-09T23:36:01.364Z,1.70
2023-05-09T23:38:29.323Z,0.57
2023-05-09T23:41:01.668Z,0.40
2023-05-09T23:43:29.989Z,1.20
2023-05-09T23:45:58.039Z,1.93
2023-05-09T23:48:26.413Z,1.00
2023-05-09T23:50:54.317Z,0.70
2023-05-09T23:53:22.398Z,1.33
2023-05-09T23:55:50.396Z,1.10
2023-05-09T23:58:19.779Z,1.27
